createdAt,value
2022-10-18T00:00:38.913Z,13.60
2022-10-18T00:03:06.354Z,13.70
2022-10-18T00:05:34.732Z,13.60
2022-10-18T00:08:02.425Z,13.60
2022-10-18T00:10:29.944Z,13.50
2022-10-18T00:12:57.665Z,13.60
2022-10-18T00:15:24.941Z,13.60
2022-10-18T00:17:52.196Z,13.50
2022-10-18T00:20:22.316Z,13.50
2022-10-18T00:22:49.431Z,13.50
2022-10-18T00:25:17.153Z,13.50
2022-10-18T00:27:44.919Z,13.50
2022-10-18T00:30:12.279Z,13.50
2022-10-18T00:32:40.439Z,13.50
2022-10-18T00:35:08.285Z,13.50
2022-10-18T00:37:36.038Z,13.50
2022-10-18T00:40:03.565Z,13.50
2022-10-18T00:42:34.254Z,13.60
2022-10-18T00:45:05.628Z,13.60
2022-10-18T00:47:33.648Z,13.50
2022-10-18T00:50:03.414Z,13.50
2022-10-18T00:52:51.845Z,13.50
2022-10-18T00:55:19.800Z,13.50
2022-10-18T00:57:47.153Z,13.40
2022-10-18T01:00:14.748Z,13.40
2022-10-18T01:02:43.089Z,13.40
2022-10-18T01:05:11.382Z,13.40
2022-10-18T01:07:48.003Z,13.40
2022-10-18T01:10:15.142Z,13.30
2022-10-18T01:12:54.732Z,13.40
2022-10-18T01:15:21.849Z,13.30
2022-10-18T01:18:00.938Z,13.30
2022-10-18T01:20:28.245Z,13.30
2022-10-18T01:23:05.871Z,13.30
2022-10-18T01:25:40.719Z,13.30
2022-10-18T01:28:10.189Z,13.30
2022-10-18T01:30:46.033Z,13.30
2022-10-18T01:33:19.961Z,13.40
2022-10-18T01:35:49.874Z,13.40
2022-10-18T01:38:18.031Z,13.40
2022-10-18T01:40:47.360Z,13.50
2022-10-18T01:43:14.779Z,13.50
2022-10-18T01:45:41.848Z,13.50
2022-10-18T01:48:10.508Z,13.50
2022-10-18T01:50:37.251Z,13.50
2022-10-18T01:53:03.998Z,13.50
2022-10-18T01:55:39.170Z,13.50
2022-10-18T01:58:05.887Z,13.40
2022-10-18T02:00:42.551Z,13.50
2022-10-18T02:03:28.060Z,13.50
2022-10-18T02:06:13.712Z,13.50
2022-10-18T02:08:43.483Z,13.60
2022-10-18T02:11:12.440Z,13.60
2022-10-18T02:13:44.157Z,13.60
2022-10-18T02:16:13.309Z,13.60
2022-10-18T02:18:41.769Z,13.60
2022-10-18T02:21:10.729Z,13.70
2022-10-18T02:23:38.477Z,13.60
2022-10-18T02:26:05.646Z,13.60
2022-10-18T02:28:32.479Z,13.60
2022-10-18T02:31:03.910Z,13.60
2022-10-18T02:33:43.013Z,13.60
2022-10-18T02:36:19.374Z,13.70
2022-10-18T02:38:47.022Z,13.60
2022-10-18T02:41:21.864Z,13.60
2022-10-18T02:43:48.612Z,13.60
2022-10-18T02:46:15.427Z,13.60
2022-10-18T02:48:42.185Z,13.50
2022-10-18T02:51:08.918Z,13.60
2022-10-18T02:53:35.620Z,13.60
2022-10-18T02:56:03.361Z,13.70
2022-10-18T02:58:30.069Z,13.70
2022-10-18T03:00:56.791Z,13.70
2022-10-18T03:03:23.512Z,13.70
2022-10-18T03:05:50.783Z,13.70
2022-10-18T03:08:17.803Z,13.70
2022-10-18T03:10:45.411Z,13.70
2022-10-18T03:13:12.437Z,13.70
2022-10-18T03:15:39.191Z,13.70
2022-10-18T03:18:05.932Z,13.70
2022-10-18T03:20:33.200Z,13.70
2022-10-18T03:23:00.151Z,13.60
2022-10-18T03:25:26.864Z,13.60
2022-10-18T03:27:53.619Z,13.60
2022-10-18T03:30:20.386Z,13.60
2022-10-18T03:32:47.065Z,13.60
2022-10-18T03:35:13.803Z,13.60
2022-10-18T03:37:40.539Z,13.60
2022-10-18T03:40:07.747Z,13.60
2022-10-18T03:42:34.826Z,13.60
2022-10-18T03:45:01.690Z,13.60
2022-10-18T03:47:28.395Z,13.60
2022-10-18T03:49:57.194Z,13.60
2022-10-18T03:52:24.413Z,13.60
2022-10-18T03:54:51.124Z,13.60
2022-10-18T03:57:17.842Z,13.60
2022-10-18T03:59:44.670Z,13.60
2022-10-18T04:02:11.441Z,13.60
2022-10-18T04:04:38.141Z,13.60
2022-10-18T04:07:04.858Z,13.60
2022-10-18T04:09:31.569Z,13.60
2022-10-18T04:11:58.316Z,13.70
2022-10-18T04:14:25.076Z,13.70
2022-10-18T04:16:51.781Z,13.70
2022-10-18T04:19:18.569Z,13.70
2022-10-18T04:21:45.412Z,13.70
2022-10-18T04:24:12.099Z,13.70
2022-10-18T04:26:38.766Z,13.70
2022-10-18T04:29:05.601Z,13.70
2022-10-18T04:31:32.452Z,13.70
2022-10-18T04:33:59.201Z,13.70
2022-10-18T04:36:25.916Z,13.70
2022-10-18T04:38:52.626Z,13.70
2022-10-18T04:41:19.362Z,13.70
2022-10-18T04:46:32.714Z,13.70
2022-10-18T04:49:01.259Z,13.70
2022-10-18T04:51:28.599Z,13.70
2022-10-18T04:53:55.352Z,13.70
2022-10-18T04:56:22.179Z,13.70
2022-10-18T04:58:49.079Z,13.80
2022-10-18T05:01:17.263Z,13.70
2022-10-18T05:03:44.099Z,13.80
2022-10-18T05:06:10.990Z,13.80
2022-10-18T05:08:38.503Z,13.80
2022-10-18T05:11:05.339Z,13.70
2022-10-18T05:13:32.245Z,13.70
2022-10-18T05:16:00.216Z,13.70
2022-10-18T05:18:27.030Z,13.70
2022-10-18T05:20:53.798Z,13.70
2022-10-18T05:23:20.538Z,13.70
2022-10-18T05:25:47.314Z,13.70
2022-10-18T05:28:38.816Z,13.70
2022-10-18T05:31:02.676Z,13.60
2022-10-18T05:33:29.820Z,13.60
2022-10-18T05:35:56.662Z,13.70
2022-10-18T05:38:23.455Z,13.60
2022-10-18T05:40:50.286Z,13.60
2022-10-18T05:43:17.855Z,13.60
2022-10-18T05:45:51.127Z,13.50
2022-10-18T05:48:18.395Z,13.50
2022-10-18T05:50:45.411Z,13.50
2022-10-18T05:53:18.534Z,13.50
2022-10-18T05:56:02.437Z,13.50
2022-10-18T05:58:29.207Z,13.50
2022-10-18T06:00:58.826Z,13.50
2022-10-18T06:03:25.851Z,13.50
2022-10-18T06:05:52.573Z,13.50
2022-10-18T06:08:19.307Z,13.60
2022-10-18T06:10:46.055Z,13.60
2022-10-18T06:13:12.815Z,13.60
2022-10-18T06:15:39.786Z,13.60
2022-10-18T06:18:06.591Z,13.90
2022-10-18T06:20:33.308Z,14.00
2022-10-18T06:23:00.064Z,14.10
2022-10-18T06:25:26.869Z,14.30
2022-10-18T06:27:53.652Z,14.30
2022-10-18T06:30:20.363Z,14.40
2022-10-18T06:32:47.113Z,14.40
2022-10-18T06:35:13.910Z,14.40
2022-10-18T06:37:40.675Z,14.40
2022-10-18T06:40:07.679Z,14.40
2022-10-18T06:42:34.763Z,14.50
2022-10-18T06:45:01.710Z,14.60
2022-10-18T06:47:28.424Z,14.70
2022-10-18T06:49:55.142Z,14.80
2022-10-18T06:52:25.662Z,14.90
2022-10-18T06:54:52.926Z,14.80
2022-10-18T06:57:20.282Z,14.70
2022-10-18T06:59:47.214Z,14.70
2022-10-18T07:02:17.481Z,14.60
2022-10-18T07:04:44.206Z,14.70
2022-10-18T07:07:10.963Z,14.70
2022-10-18T07:09:37.711Z,14.70
2022-10-18T07:12:04.579Z,14.90
2022-10-18T07:14:31.415Z,15.00
2022-10-18T07:17:01.312Z,15.20
2022-10-18T07:19:28.167Z,15.30
2022-10-18T07:21:54.929Z,15.40
2022-10-18T07:24:21.731Z,15.40
2022-10-18T07:26:48.619Z,15.40
2022-10-18T07:29:15.586Z,15.30
2022-10-18T07:31:42.407Z,15.30
2022-10-18T07:34:14.761Z,15.30
2022-10-18T07:36:41.948Z,15.20
2022-10-18T07:39:08.791Z,15.20
2022-10-18T07:41:35.756Z,15.20
2022-10-18T07:44:04.090Z,15.10
2022-10-18T07:46:31.103Z,15.10
2022-10-18T07:49:00.932Z,15.20
2022-10-18T07:51:28.191Z,15.20
2022-10-18T07:53:55.024Z,15.20
2022-10-18T07:56:22.422Z,15.20
2022-10-18T07:58:55.595Z,15.10
2022-10-18T08:01:24.295Z,15.10
2022-10-18T08:03:52.152Z,15.10
2022-10-18T08:06:20.770Z,15.10
2022-10-18T08:08:47.707Z,15.10
2022-10-18T08:11:17.345Z,15.10
2022-10-18T08:13:44.575Z,15.10
2022-10-18T08:16:21.059Z,15.10
2022-10-18T08:18:48.499Z,15.10
2022-10-18T08:21:16.734Z,15.00
2022-10-18T08:23:44.187Z,15.00
2022-10-18T08:26:16.696Z,15.00
2022-10-18T08:28:53.622Z,15.10
2022-10-18T08:31:31.103Z,15.10
2022-10-18T08:33:58.083Z,15.20
2022-10-18T08:36:25.070Z,15.20
2022-10-18T08:38:52.000Z,15.30
2022-10-18T08:41:30.134Z,15.40
2022-10-18T08:44:04.787Z,15.40
2022-10-18T08:46:36.753Z,15.40
2022-10-18T08:49:04.401Z,15.40
2022-10-18T08:51:51.306Z,15.40
2022-10-18T08:54:49.552Z,15.50
2022-10-18T08:57:18.361Z,15.50
2022-10-18T08:59:45.284Z,15.60
2022-10-18T09:02:42.659Z,15.60
2022-10-18T09:05:24.574Z,15.60
2022-10-18T09:08:23.103Z,15.50
2022-10-18T09:11:48.342Z,15.60
2022-10-18T09:14:28.166Z,15.60
2022-10-18T09:16:54.942Z,15.60
2022-10-18T09:19:37.061Z,15.60
2022-10-18T09:22:19.220Z,15.60
2022-10-18T09:25:22.475Z,15.60
2022-10-18T09:28:03.712Z,15.60
2022-10-18T09:31:09.999Z,15.50
2022-10-18T09:33:46.146Z,15.50
2022-10-18T09:36:39.896Z,15.60
2022-10-18T09:39:09.849Z,15.60
2022-10-18T09:41:45.318Z,15.60
2022-10-18T09:44:18.120Z,15.60
2022-10-18T09:46:50.788Z,15.50
2022-10-18T09:49:40.390Z,15.50
2022-10-18T09:52:13.850Z,15.60
2022-10-18T09:54:43.763Z,15.60
2022-10-18T09:57:17.828Z,15.80
2022-10-18T09:59:49.802Z,15.80
2022-10-18T10:02:22.357Z,15.90
2022-10-18T10:04:54.293Z,16.10
2022-10-18T10:07:28.654Z,16.20
2022-10-18T10:10:12.689Z,16.40
2022-10-18T10:12:40.407Z,16.50
2022-10-18T10:15:08.962Z,16.70
2022-10-18T10:17:35.899Z,17.00
2022-10-18T10:20:05.383Z,17.00
2022-10-18T10:22:35.471Z,17.40
2022-10-18T10:25:02.436Z,17.80
2022-10-18T10:27:32.685Z,18.20
2022-10-18T10:30:04.345Z,18.60
2022-10-18T10:32:45.391Z,19.00
2022-10-18T10:35:35.317Z,19.00
2022-10-18T10:38:22.784Z,18.90
2022-10-18T10:40:50.866Z,18.70
2022-10-18T10:43:38.921Z,18.60
2022-10-18T10:46:08.904Z,18.90
2022-10-18T10:48:50.668Z,19.40
2022-10-18T10:51:39.058Z,19.70
2022-10-18T10:54:14.307Z,20.00
2022-10-18T10:56:52.063Z,20.00
2022-10-18T10:59:20.725Z,19.90
2022-10-18T11:01:50.538Z,20.10
2022-10-18T11:04:28.652Z,20.40
2022-10-18T11:07:07.856Z,20.70
2022-10-18T11:09:41.862Z,21.10
2022-10-18T11:12:14.767Z,21.40
2022-10-18T11:14:44.878Z,21.70
2022-10-18T11:17:14.718Z,22.00
2022-10-18T11:19:53.762Z,22.00
2022-10-18T11:22:22.342Z,22.10
2022-10-18T11:24:49.830Z,22.20
2022-10-18T11:27:28.316Z,22.40
2022-10-18T11:30:25.490Z,22.50
2022-10-18T11:33:38.288Z,22.60
2022-10-18T11:36:40.387Z,22.40
2022-10-18T11:39:22.953Z,22.00
2022-10-18T11:41:54.656Z,21.70
2022-10-18T11:44:21.547Z,21.40
2022-10-18T11:46:48.401Z,21.40
2022-10-18T11:49:28.078Z,21.50
2022-10-18T11:52:08.005Z,21.70
2022-10-18T11:54:41.572Z,21.90
2022-10-18T11:57:17.683Z,22.20
2022-10-18T12:00:03.370Z,22.20
2022-10-18T12:02:53.873Z,22.30
2022-10-18T12:05:24.051Z,22.30
2022-10-18T12:07:51.423Z,22.10
2022-10-18T12:10:31.409Z,22.00
2022-10-18T12:13:08.120Z,22.00
2022-10-18T12:15:36.776Z,22.10
2022-10-18T12:18:06.310Z,22.20
2022-10-18T12:20:35.067Z,22.30
2022-10-18T12:23:17.017Z,22.40
2022-10-18T12:25:46.665Z,22.50
2022-10-18T12:28:24.110Z,22.60
2022-10-18T12:30:56.861Z,22.80
2022-10-18T12:33:28.637Z,22.90
2022-10-18T12:35:58.927Z,22.80
2022-10-18T12:38:28.246Z,22.50
2022-10-18T12:40:55.343Z,22.30
2022-10-18T12:43:26.166Z,22.20
2022-10-18T12:45:57.803Z,22.10
2022-10-18T12:48:27.642Z,22.00
2022-10-18T12:50:58.381Z,22.00
2022-10-18T12:53:33.062Z,22.10
2022-10-18T12:56:38.571Z,22.10
2022-10-18T12:59:14.472Z,22.20
2022-10-18T13:01:50.330Z,22.40
2022-10-18T13:04:32.937Z,22.50
2022-10-18T13:06:59.823Z,22.60
2022-10-18T13:09:30.773Z,22.60
2022-10-18T13:12:09.853Z,22.40
2022-10-18T13:15:25.394Z,22.00
2022-10-18T13:18:01.185Z,21.70
2022-10-18T13:20:28.085Z,21.40
2022-10-18T13:23:27.728Z,21.00
2022-10-18T13:25:54.451Z,20.90
2022-10-18T13:28:40.035Z,20.90
2022-10-18T13:31:32.947Z,21.20
2022-10-18T13:34:16.705Z,21.60
2022-10-18T13:36:43.513Z,22.00
2022-10-18T13:39:18.956Z,22.30
2022-10-18T13:41:45.943Z,22.50
2022-10-18T13:44:28.958Z,22.70
2022-10-18T13:46:55.663Z,22.80
2022-10-18T13:49:31.535Z,22.60
2022-10-18T13:52:03.626Z,22.20
2022-10-18T13:54:30.402Z,21.70
2022-10-18T13:57:16.196Z,21.30
2022-10-18T13:59:49.077Z,20.90
2022-10-18T14:02:50.950Z,20.50
2022-10-18T14:05:38.058Z,20.30
2022-10-18T14:08:10.685Z,20.00
2022-10-18T14:11:01.425Z,19.90
2022-10-18T14:13:33.963Z,19.90
2022-10-18T14:16:10.855Z,20.00
2022-10-18T14:18:40.871Z,20.00
2022-10-18T14:21:16.843Z,19.80
2022-10-18T14:23:46.286Z,19.70
2022-10-18T14:26:20.032Z,19.90
2022-10-18T14:29:01.450Z,20.20
2022-10-18T14:31:28.328Z,20.40
2022-10-18T14:33:59.207Z,20.60
2022-10-18T14:36:27.212Z,20.70
2022-10-18T14:38:56.285Z,20.70
2022-10-18T14:41:36.625Z,20.60
2022-10-18T14:44:11.794Z,20.50
2022-10-18T14:46:42.788Z,20.30
2022-10-18T14:49:13.614Z,20.10
2022-10-18T14:51:41.976Z,19.90
2022-10-18T14:54:20.143Z,19.70
2022-10-18T14:56:47.446Z,19.50
2022-10-18T14:59:22.837Z,19.50
2022-10-18T15:01:55.379Z,19.40
2022-10-18T15:04:27.731Z,19.30
2022-10-18T15:06:55.672Z,19.30
2022-10-18T15:09:23.221Z,19.20
2022-10-18T15:11:54.859Z,19.10
2022-10-18T15:14:21.877Z,19.00
2022-10-18T15:16:50.674Z,19.00
2022-10-18T15:19:17.381Z,18.90
2022-10-18T15:22:08.027Z,18.80
2022-10-18T15:24:41.706Z,18.70
2022-10-18T15:27:08.423Z,18.60
2022-10-18T15:29:36.902Z,18.50
2022-10-18T15:32:25.673Z,18.50
2022-10-18T15:34:53.118Z,18.50
2022-10-18T15:37:32.510Z,18.40
2022-10-18T15:40:18.632Z,18.20
2022-10-18T17:01:41.554Z,15.00
2022-10-18T17:04:08.676Z,15.00
2022-10-18T17:06:35.374Z,14.90
2022-10-18T17:09:02.085Z,14.70
2022-10-18T17:11:28.975Z,14.50
2022-10-18T17:13:55.739Z,14.50
2022-10-18T17:16:22.490Z,14.30
2022-10-18T17:36:17.314Z,13.50
2022-10-18T17:38:46.760Z,13.50
2022-10-18T17:41:13.765Z,13.40
2022-10-18T17:43:44.092Z,13.40
2022-10-18T17:46:11.760Z,13.20
2022-10-18T17:48:38.528Z,13.10
2022-10-18T17:51:08.954Z,13.00
2022-10-18T17:53:35.786Z,13.00
2022-10-18T17:56:03.167Z,12.90
2022-10-18T17:58:30.234Z,12.80
2022-10-18T18:00:57.079Z,12.70
2022-10-18T18:03:23.904Z,12.60
2022-10-18T18:05:50.661Z,12.70
2022-10-18T18:08:17.437Z,12.70
2022-10-18T18:10:44.280Z,12.60
2022-10-18T18:13:11.201Z,12.50
2022-10-18T18:15:38.744Z,12.70
2022-10-18T18:18:05.492Z,12.80
2022-10-18T18:20:32.181Z,12.70
2022-10-18T18:22:58.967Z,12.60
2022-10-18T18:25:25.700Z,12.50
2022-10-18T18:27:53.979Z,12.50
2022-10-18T18:30:21.905Z,12.50
2022-10-18T18:32:48.555Z,12.50
2022-10-18T18:35:15.270Z,12.40
2022-10-18T18:37:42.041Z,12.30
2022-10-18T18:40:08.971Z,12.30
2022-10-18T18:42:36.074Z,12.20
2022-10-18T18:45:03.350Z,12.10
2022-10-18T18:47:35.776Z,12.10
2022-10-18T18:50:02.572Z,12.00
2022-10-18T18:52:29.463Z,12.00
2022-10-18T18:54:56.309Z,11.90
2022-10-18T18:57:23.113Z,11.90
2022-10-18T18:59:50.114Z,11.90
2022-10-18T19:02:16.833Z,12.00
2022-10-18T19:04:43.595Z,12.00
2022-10-18T19:07:10.341Z,11.90
2022-10-18T19:09:38.738Z,11.90
2022-10-18T19:12:05.619Z,12.00
2022-10-18T19:14:32.393Z,11.90
2022-10-18T19:16:59.301Z,11.90
2022-10-18T19:19:27.254Z,11.90
2022-10-18T19:21:55.164Z,11.90
2022-10-18T19:24:22.536Z,11.90
2022-10-18T19:26:50.454Z,11.80
2022-10-18T19:29:19.198Z,11.70
2022-10-18T19:31:45.971Z,11.70
2022-10-18T19:34:13.717Z,11.70
2022-10-18T19:36:41.176Z,11.70
2022-10-18T19:39:08.811Z,11.50
2022-10-18T19:41:35.594Z,11.50
2022-10-18T19:44:02.334Z,11.50
2022-10-18T19:46:29.144Z,11.40
2022-10-18T19:48:55.958Z,11.40
2022-10-18T19:51:25.474Z,11.40
2022-10-18T19:53:55.234Z,11.30
2022-10-18T19:56:23.291Z,11.30
2022-10-18T19:58:50.631Z,11.20
2022-10-18T20:01:18.349Z,11.20
2022-10-18T20:03:45.778Z,11.20
2022-10-18T20:06:12.571Z,11.10
2022-10-18T20:08:39.629Z,11.10
